Time;durP1;ratioP1;P1;durP2;ratioP2;P2;SDS_P1;SDS_P2;PMS_P1;PMS_P2;Temp;Humidity;BMP_temperature;BMP_pressure;BME280_temperature;BME280_humidity;BME280_pressure;Samples;Min_cycle;Max_cycle;Signal;HPM_P1;HPM_P2
2022/06/25 00:01:53;;;;;;;13.35;12.25;;;17.50;99.90;;;;;;5028008;28;20095;-29
2022/06/25 00:07:06;;;;;;;13.25;12.10;;;17.40;99.90;;;;;;5047822;28;20065;-29
2022/06/25 00:09:32;;;;;;;13.10;12.00;;;17.40;99.90;;;;;;5016399;28;20440;-29
2022/06/25 00:14:42;;;;;;;12.70;11.60;;;17.30;99.90;;;;;;5038991;28;20085;-29
2022/06/25 00:17:07;;;;;;;13.73;12.40;;;17.30;99.90;;;;;;5038545;28;20301;-29
2022/06/25 00:19:33;;;;;;;13.52;12.32;;;17.30;99.90;;;;;;4995991;28;20037;-29
2022/06/25 00:21:59;;;;;;;14.10;12.90;;;17.30;99.90;;;;;;5044541;28;20396;-29
2022/06/25 00:24:25;;;;;;;15.25;13.85;;;17.20;99.90;;;;;;5045919;28;20481;-30
2022/06/25 00:26:51;;;;;;;14.95;13.65;;;17.20;99.90;;;;;;5027255;28;20044;-29
2022/06/25 00:29:16;;;;;;;14.75;13.55;;;17.20;99.90;;;;;;5048736;28;20039;-29
2022/06/25 00:31:43;;;;;;;15.00;13.63;;;17.10;99.90;;;;;;5047227;28;20028;-29
2022/06/25 00:34:09;;;;;;;14.75;13.35;;;17.10;99.90;;;;;;5050487;28;20492;-29
2022/06/25 00:36:35;;;;;;;14.07;12.88;;;17.10;99.90;;;;;;5050121;28;20048;-29
2022/06/25 00:39:01;;;;;;;12.77;11.80;;;17.10;99.90;;;;;;5046065;28;20045;-29
2022/06/25 00:41:28;;;;;;;13.88;12.57;;;17.10;99.90;;;;;;5050487;28;20488;-29
2022/06/25 00:43:54;;;;;;;15.68;14.25;;;17.20;99.90;;;;;;5029927;28;20037;-29
2022/06/25 00:46:19;;;;;;;15.85;14.52;;;17.20;99.90;;;;;;5049086;28;20037;-30
2022/06/25 00:48:45;;;;;;;15.23;13.93;;;17.20;99.90;;;;;;5044760;28;20033;-30
2022/06/25 00:51:14;;;;;;;15.60;14.40;;;17.10;99.90;;;;;;5044525;28;20128;-30
2022/06/25 00:53:42;;;;;;;15.25;13.85;;;17.10;99.90;;;;;;5046100;28;20040;-30
2022/06/25 00:56:10;;;;;;;16.27;14.77;;;17.10;99.90;;;;;;5050536;28;20045;-30
2022/06/25 00:58:39;;;;;;;16.05;14.75;;;17.10;99.90;;;;;;5049717;28;20119;-29
2022/06/25 01:01:08;;;;;;;15.27;13.98;;;17.00;99.90;;;;;;5050260;28;20056;-30
2022/06/25 01:03:34;;;;;;;18.00;16.50;;;17.00;99.90;;;;;;5050746;28;20036;-29
2022/06/25 01:06:01;;;;;;;17.73;16.13;;;16.90;99.90;;;;;;5032249;28;20041;-29
2022/06/25 01:08:27;;;;;;;17.38;15.68;;;16.90;99.90;;;;;;5027147;28;20045;-29
2022/06/25 01:10:53;;;;;;;18.50;16.73;;;16.90;99.90;;;;;;5050328;28;20492;-30
2022/06/25 01:13:23;;;;;;;15.75;14.27;;;16.90;99.90;;;;;;5030457;28;20090;-30
2022/06/25 01:15:49;;;;;;;18.70;16.90;;;16.90;99.90;;;;;;5032583;28;20036;-29
2022/06/25 01:18:15;;;;;;;19.17;17.55;;;16.90;99.90;;;;;;5045637;28;20044;-29
2022/06/25 01:20:44;;;;;;;18.60;16.92;;;16.80;99.90;;;;;;5050059;28;20041;-29
2022/06/25 01:23:11;;;;;;;18.98;17.42;;;16.80;99.90;;;;;;5041539;28;20149;-29
2022/06/25 01:25:38;;;;;;;17.67;16.17;;;16.90;99.90;;;;;;5050484;28;20518;-30
2022/06/25 01:28:04;;;;;;;17.42;15.80;;;16.90;99.90;;;;;;5049927;28;20041;-29
2022/06/25 01:30:31;;;;;;;17.17;15.65;;;16.90;99.90;;;;;;5050243;28;20190;-30
2022/06/25 01:32:57;;;;;;;18.05;16.48;;;16.80;99.90;;;;;;5049923;28;20044;-29
2022/06/25 01:35:23;;;;;;;18.33;16.52;;;16.80;99.90;;;;;;4990920;28;20075;-29
2022/06/25 01:37:49;;;;;;;19.15;17.38;;;16.80;99.90;;;;;;5050087;28;20037;-29
2022/06/25 01:40:15;;;;;;;19.42;17.73;;;16.80;99.90;;;;;;5049600;28;21827;-29
2022/06/25 01:42:59;;;;;;;19.77;17.88;;;16.70;99.90;;;;;;5035905;28;20112;-30
2022/06/25 01:45:36;;;;;;;17.13;15.73;;;16.60;99.90;;;;;;5047926;28;20398;-29
2022/06/25 01:48:04;;;;;;;18.20;16.70;;;16.60;99.90;;;;;;5037827;28;20060;-30
2022/06/25 01:50:30;;;;;;;19.75;18.00;;;16.50;99.90;;;;;;5050339;28;20041;-29
2022/06/25 01:52:56;;;;;;;19.80;17.90;;;16.50;99.90;;;;;;5030293;28;20079;-29
2022/06/25 01:55:22;;;;;;;19.67;17.88;;;16.50;99.90;;;;;;5009594;28;20049;-30
2022/06/25 01:57:50;;;;;;;19.30;17.60;;;16.40;99.90;;;;;;5009781;28;20122;-29
2022/06/25 02:00:21;;;;;;;20.25;18.30;;;16.40;99.90;;;;;;5046498;28;20095;-30
2022/06/25 02:02:47;;;;;;;18.92;17.33;;;16.40;99.90;;;;;;5021600;28;20041;-29
2022/06/25 02:05:15;;;;;;;18.25;16.65;;;16.40;99.90;;;;;;5009169;28;20049;-30
2022/06/25 02:07:41;;;;;;;19.80;17.85;;;16.30;99.90;;;;;;5050441;28;20049;-30
2022/06/25 02:10:08;;;;;;;20.27;18.40;;;16.30;99.90;;;;;;5048835;28;20041;-30
2022/06/25 02:12:34;;;;;;;18.92;17.08;;;16.30;99.90;;;;;;5041175;28;20037;-30
2022/06/25 02:15:01;;;;;;;19.70;17.77;;;16.20;99.90;;;;;;5024226;28;20049;-30
2022/06/25 02:17:28;;;;;;;19.10;17.33;;;16.20;99.90;;;;;;5032701;28;20079;-29
2022/06/25 02:19:53;;;;;;;20.83;18.65;;;16.20;99.90;;;;;;5039968;28;20124;-29
2022/06/25 02:22:19;;;;;;;18.75;17.17;;;16.20;99.90;;;;;;5052876;28;20120;-29
2022/06/25 02:24:45;;;;;;;19.27;17.58;;;16.20;99.90;;;;;;5052991;28;20086;-29
2022/06/25 02:27:11;;;;;;;19.33;17.58;;;16.20;99.90;;;;;;5035056;28;20055;-29
2022/06/25 02:29:37;;;;;;;18.58;17.08;;;16.20;99.90;;;;;;5051271;28;20064;-30
2022/06/25 02:32:03;;;;;;;17.83;16.23;;;16.20;99.90;;;;;;5042537;28;20041;-29
2022/06/25 02:34:30;;;;;;;18.67;16.83;;;16.20;99.90;;;;;;5053073;28;20033;-29
2022/06/25 02:36:56;;;;;;;19.35;17.55;;;16.20;99.90;;;;;;5047588;28;20037;-29
2022/06/25 02:39:22;;;;;;;18.33;16.80;;;16.20;99.90;;;;;;5050382;28;20091;-29
2022/06/25 02:41:47;;;;;;;19.25;17.55;;;16.20;99.90;;;;;;5028273;28;20029;-29
2022/06/25 02:44:13;;;;;;;19.05;17.33;;;16.20;99.90;;;;;;5050698;28;20041;-30
2022/06/25 02:46:39;;;;;;;18.88;17.13;;;16.30;99.90;;;;;;5052529;28;20029;-29
2022/06/25 02:49:05;;;;;;;17.08;15.52;;;16.20;99.90;;;;;;5052794;28;20044;-29
2022/06/25 02:51:32;;;;;;;19.95;18.15;;;16.20;99.90;;;;;;5052824;28;20504;-29
2022/06/25 02:53:57;;;;;;;18.95;17.35;;;16.20;99.90;;;;;;5043212;28;20069;-29
2022/06/25 02:59:08;;;;;;;20.10;18.30;;;16.10;99.90;;;;;;5048315;28;20046;-29
2022/06/25 03:01:34;;;;;;;20.95;19.15;;;16.10;99.90;;;;;;5052448;28;20041;-30
2022/06/25 03:04:00;;;;;;;19.08;17.48;;;16.10;99.90;;;;;;5027073;28;20040;-29
2022/06/25 03:06:26;;;;;;;19.73;17.70;;;16.10;99.90;;;;;;5053421;28;20067;-30
2022/06/25 03:08:51;;;;;;;22.95;20.85;;;16.10;99.90;;;;;;5046392;28;20550;-29
2022/06/25 03:11:18;;;;;;;18.25;16.48;;;16.10;99.90;;;;;;5048522;28;20037;-29
2022/06/25 03:13:44;;;;;;;18.88;17.17;;;16.10;99.90;;;;;;5032241;28;20044;-29
2022/06/25 03:16:10;;;;;;;20.92;18.95;;;16.10;99.90;;;;;;5031571;28;20037;-29
2022/06/25 03:18:37;;;;;;;19.55;17.83;;;16.20;99.90;;;;;;5046853;28;20045;-29
2022/06/25 03:21:04;;;;;;;18.60;16.92;;;16.20;99.90;;;;;;5032362;28;20161;-29
2022/06/25 03:23:30;;;;;;;18.25;16.42;;;16.20;99.90;;;;;;5047382;28;20029;-29
2022/06/25 03:25:55;;;;;;;19.85;17.85;;;16.20;99.90;;;;;;5034993;28;20040;-30
2022/06/25 03:28:22;;;;;;;17.20;15.60;;;16.10;99.90;;;;;;5033318;28;20071;-29
2022/06/25 03:30:48;;;;;;;17.88;16.30;;;16.10;99.90;;;;;;5046183;28;20039;-29
2022/06/25 03:33:14;;;;;;;18.38;16.52;;;16.10;99.90;;;;;;5015694;28;20037;-29
2022/06/25 03:35:40;;;;;;;18.70;16.77;;;16.20;99.90;;;;;;5052264;28;20561;-29
2022/06/25 03:38:06;;;;;;;20.02;18.02;;;16.20;99.90;;;;;;5041242;28;20111;-29
2022/06/25 03:40:32;;;;;;;18.95;17.38;;;16.20;99.90;;;;;;5043427;28;20033;-29
2022/06/25 03:42:58;;;;;;;17.08;15.43;;;16.20;99.90;;;;;;5044768;28;20102;-29
2022/06/25 03:45:24;;;;;;;17.17;15.52;;;16.20;99.90;;;;;;5050788;28;20072;-29
2022/06/25 03:47:50;;;;;;;17.85;16.23;;;16.30;99.90;;;;;;5051191;28;20455;-29
2022/06/25 03:50:17;;;;;;;17.75;16.05;;;16.30;99.90;;;;;;5048670;28;20038;-29
2022/06/25 03:52:44;;;;;;;17.17;15.52;;;16.30;99.90;;;;;;5045960;28;20071;-29
2022/06/25 03:55:09;;;;;;;16.70;15.10;;;16.40;99.90;;;;;;5051762;28;20072;-29
2022/06/25 03:57:36;;;;;;;16.55;15.15;;;16.40;99.90;;;;;;5051696;28;20068;-29
2022/06/25 04:00:04;;;;;;;17.58;15.85;;;16.40;99.90;;;;;;5015417;28;20041;-29
2022/06/25 04:02:29;;;;;;;17.55;15.77;;;16.50;99.90;;;;;;5038694;28;20119;-29
2022/06/25 04:04:55;;;;;;;14.43;13.20;;;16.50;99.90;;;;;;5049887;28;20223;-29
2022/06/25 04:07:21;;;;;;;14.73;13.43;;;16.50;99.90;;;;;;5049985;28;20044;-29
2022/06/25 04:09:47;;;;;;;14.82;13.52;;;16.60;99.90;;;;;;5044678;28;20040;-29
2022/06/25 04:12:12;;;;;;;15.32;14.02;;;16.60;99.90;;;;;;5051730;28;20056;-29
2022/06/25 04:14:38;;;;;;;15.25;13.75;;;16.60;99.90;;;;;;5044626;28;20040;-29
2022/06/25 04:17:06;;;;;;;15.57;13.98;;;16.70;99.90;;;;;;5051867;28;20047;-29
2022/06/25 04:19:39;;;;;;;15.32;14.02;;;16.70;99.90;;;;;;5041876;28;20465;-29
2022/06/25 04:22:10;;;;;;;14.32;13.00;;;16.70;99.90;;;;;;5047889;28;20519;-29
2022/06/25 04:24:37;;;;;;;14.18;12.95;;;16.70;99.90;;;;;;5048090;28;20041;-29
2022/06/25 04:27:03;;;;;;;14.57;13.27;;;16.70;99.90;;;;;;5027266;28;20148;-29
2022/06/25 04:29:30;;;;;;;16.05;14.52;;;16.80;99.90;;;;;;5049501;28;20064;-29
2022/06/25 04:31:56;;;;;;;14.32;12.82;;;16.80;99.90;;;;;;5046049;28;20531;-29
2022/06/25 04:34:22;;;;;;;14.55;13.25;;;16.80;99.90;;;;;;5050948;28;20029;-29
2022/06/25 04:36:48;;;;;;;14.00;12.70;;;16.90;99.90;;;;;;5015960;28;20080;-29
2022/06/25 04:39:14;;;;;;;14.90;13.50;;;16.90;99.90;;;;;;5046188;28;20084;-29
2022/06/25 04:41:40;;;;;;;13.63;12.35;;;16.90;99.90;;;;;;5046508;28;20878;-29
2022/06/25 04:44:06;;;;;;;14.50;12.85;;;17.00;99.90;;;;;;5049198;28;20480;-29
2022/06/25 04:46:32;;;;;;;13.65;12.55;;;17.00;99.90;;;;;;5048853;28;20149;-29
2022/06/25 04:48:58;;;;;;;14.20;12.90;;;17.00;99.90;;;;;;5038847;28;20120;-29
2022/06/25 04:51:26;;;;;;;13.02;11.85;;;17.10;99.90;;;;;;5048734;28;20552;-32
2022/06/25 04:53:58;;;;;;;12.32;11.30;;;17.10;99.90;;;;;;5013882;28;20044;-29
2022/06/25 04:56:29;;;;;;;12.38;11.20;;;17.10;99.90;;;;;;5041310;28;20080;-29
2022/06/25 04:58:56;;;;;;;13.00;11.90;;;17.20;99.90;;;;;;5047855;28;20092;-29
2022/06/25 05:01:22;;;;;;;12.00;11.00;;;17.20;99.90;;;;;;5043598;28;20508;-29
2022/06/25 05:03:48;;;;;;;12.70;11.57;;;17.20;99.90;;;;;;5042850;28;20025;-29
2022/06/25 05:06:14;;;;;;;13.68;12.55;;;17.30;99.90;;;;;;5047812;28;20043;-29
2022/06/25 05:08:40;;;;;;;11.70;10.70;;;17.30;99.90;;;;;;5015096;28;20201;-29
2022/06/25 05:11:06;;;;;;;11.20;10.10;;;17.40;99.90;;;;;;5049860;28;20119;-29
2022/06/25 05:13:32;;;;;;;11.68;10.57;;;17.50;99.90;;;;;;5041694;28;20037;-29
2022/06/25 05:15:58;;;;;;;10.50;9.68;;;17.50;99.90;;;;;;5030042;28;20037;-29
2022/06/25 05:18:24;;;;;;;10.93;10.00;;;17.50;99.90;;;;;;5025730;28;20041;-29
2022/06/25 05:20:50;;;;;;;11.13;10.10;;;17.60;99.90;;;;;;5032299;28;20464;-29
2022/06/25 05:23:17;;;;;;;10.73;9.73;;;17.70;99.90;;;;;;5032010;28;20424;-29
2022/06/25 05:25:43;;;;;;;10.68;9.68;;;17.70;99.90;;;;;;5038208;28;20041;-29
2022/06/25 05:28:09;;;;;;;9.75;8.80;;;17.80;99.90;;;;;;5011179;28;20037;-29
2022/06/25 05:30:35;;;;;;;10.00;9.07;;;17.80;99.90;;;;;;5049489;28;20044;-29
2022/06/25 05:33:01;;;;;;;10.13;9.30;;;17.90;99.90;;;;;;5044293;28;20507;-29
2022/06/25 05:35:27;;;;;;;10.32;9.43;;;17.90;99.90;;;;;;5049299;28;20041;-29
2022/06/25 05:37:58;;;;;;;10.20;9.30;;;18.00;99.90;;;;;;5046329;28;20476;-29
2022/06/25 05:40:24;;;;;;;10.70;9.80;;;18.10;99.90;;;;;;5051618;28;20032;-29
2022/06/25 05:42:49;;;;;;;9.60;8.80;;;18.10;99.90;;;;;;5034605;28;20048;-29
2022/06/25 05:45:15;;;;;;;9.77;8.80;;;18.30;99.90;;;;;;5035735;28;20112;-29
2022/06/25 05:47:44;;;;;;;10.35;8.80;;;18.30;99.90;;;;;;5047226;28;20036;-29
2022/06/25 05:50:09;;;;;;;9.27;8.13;;;18.40;99.90;;;;;;5051464;28;20411;-29
2022/06/25 05:52:36;;;;;;;9.95;9.02;;;18.50;99.90;;;;;;5036232;28;20306;-29
2022/06/25 05:55:02;;;;;;;8.95;8.25;;;18.60;99.90;;;;;;5051655;28;20048;-29
2022/06/25 05:57:28;;;;;;;9.98;7.80;;;18.70;99.90;;;;;;5035268;28;20072;-29
2022/06/25 05:59:54;;;;;;;8.55;7.75;;;18.80;99.90;;;;;;5036202;28;20515;-29
2022/06/25 06:02:20;;;;;;;11.27;7.88;;;18.90;99.90;;;;;;5036069;28;20373;-29
2022/06/25 06:04:45;;;;;;;8.50;7.68;;;18.90;99.90;;;;;;5000229;28;20033;-29
2022/06/25 06:07:12;;;;;;;7.82;7.03;;;19.00;99.90;;;;;;5049019;28;20091;-30
2022/06/25 06:09:38;;;;;;;7.20;6.53;;;19.00;99.90;;;;;;5044737;28;20040;-30
2022/06/25 06:12:04;;;;;;;8.27;7.45;;;19.10;99.90;;;;;;5050600;28;20393;-30
2022/06/25 06:14:30;;;;;;;7.60;6.90;;;19.20;99.90;;;;;;5053035;28;20488;-30
2022/06/25 06:16:56;;;;;;;7.50;6.78;;;19.20;99.90;;;;;;5019574;28;20063;-30
2022/06/25 06:19:23;;;;;;;8.00;6.40;;;19.30;99.90;;;;;;5028865;28;20436;-30
2022/06/25 06:21:49;;;;;;;8.07;5.65;;;19.30;99.90;;;;;;5053858;28;20087;-30
2022/06/25 06:24:15;;;;;;;8.25;5.90;;;19.40;99.90;;;;;;5035227;28;20064;-29
2022/06/25 06:26:40;;;;;;;6.85;6.30;;;19.40;99.90;;;;;;5052492;28;20442;-29
2022/06/25 06:29:06;;;;;;;6.85;6.22;;;19.60;99.90;;;;;;5035420;28;20055;-29
2022/06/25 06:31:32;;;;;;;7.05;6.00;;;19.60;99.90;;;;;;5028864;28;20028;-30
2022/06/25 06:33:58;;;;;;;6.50;5.53;;;19.70;99.90;;;;;;5035287;28;20045;-30
2022/06/25 06:36:23;;;;;;;6.80;5.72;;;19.80;99.90;;;;;;5034912;28;20051;-30
2022/06/25 06:38:51;;;;;;;5.55;5.13;;;19.90;99.90;;;;;;5035577;28;20069;-30
2022/06/25 06:41:19;;;;;;;7.05;5.32;;;20.00;99.90;;;;;;5053145;28;20492;-30
2022/06/25 06:43:45;;;;;;;6.32;4.63;;;20.10;99.90;;;;;;5046999;28;20271;-30
2022/06/25 06:46:15;;;;;;;5.40;4.90;;;20.20;99.90;;;;;;5031127;28;20063;-30
2022/06/25 06:48:40;;;;;;;5.65;4.30;;;20.20;99.90;;;;;;5032087;28;20045;-30
2022/06/25 06:51:07;;;;;;;6.28;4.72;;;20.40;99.90;;;;;;5033402;28;20041;-30
2022/06/25 06:53:34;;;;;;;5.47;4.97;;;20.50;99.90;;;;;;5017342;28;20411;-30
2022/06/25 06:56:00;;;;;;;9.35;4.65;;;20.60;99.90;;;;;;5051579;28;20037;-30
2022/06/25 06:58:27;;;;;;;4.93;4.03;;;20.70;99.90;;;;;;5049604;28;20037;-30
2022/06/25 07:00:53;;;;;;;4.53;3.90;;;20.80;99.90;;;;;;5049326;28;20374;-30
2022/06/25 07:03:20;;;;;;;4.85;4.45;;;20.90;99.90;;;;;;5017510;28;20041;-30
2022/06/25 07:05:46;;;;;;;5.50;3.63;;;20.90;99.90;;;;;;5031913;28;20614;-30
2022/06/25 07:08:12;;;;;;;5.22;4.00;;;21.00;99.90;;;;;;5035174;28;20484;-30
2022/06/25 07:10:37;;;;;;;4.28;3.88;;;21.10;99.90;;;;;;5049029;28;20033;-30
2022/06/25 07:13:03;;;;;;;5.32;3.85;;;21.20;99.90;;;;;;5052522;28;20564;-30
2022/06/25 07:15:29;;;;;;;5.95;3.60;;;21.40;99.90;;;;;;5034575;28;20039;-30
2022/06/25 07:17:54;;;;;;;4.57;4.00;;;21.50;99.90;;;;;;5047550;28;20044;-30
2022/06/25 07:20:20;;;;;;;3.97;3.50;;;21.70;99.90;;;;;;5054886;28;20041;-27
2022/06/25 07:22:51;;;;;;;6.57;3.47;;;21.80;99.90;;;;;;5034386;28;20064;-27
2022/06/25 07:25:17;;;;;;;3.58;3.28;;;21.80;99.90;;;;;;5035991;28;20083;-27
2022/06/25 07:27:44;;;;;;;3.97;3.40;;;21.90;99.90;;;;;;5052511;28;20067;-27
2022/06/25 07:30:11;;;;;;;3.95;3.55;;;22.00;99.90;;;;;;5035371;28;20187;-27
2022/06/25 07:32:37;;;;;;;3.58;2.85;;;22.10;99.90;;;;;;5019336;28;20037;-27
2022/06/25 07:35:03;;;;;;;3.30;3.00;;;22.20;99.90;;;;;;5035805;28;20044;-27
2022/06/25 07:37:29;;;;;;;4.55;3.28;;;22.20;99.90;;;;;;5053484;28;20469;-27
2022/06/25 07:39:54;;;;;;;4.90;2.70;;;22.30;99.90;;;;;;5052952;28;20041;-27
2022/06/25 07:42:20;;;;;;;4.88;2.97;;;22.40;99.90;;;;;;5044509;28;20462;-27
2022/06/25 07:44:46;;;;;;;5.28;3.28;;;22.60;99.90;;;;;;5045642;28;20068;-27
2022/06/25 07:47:14;;;;;;;6.00;3.28;;;22.60;99.90;;;;;;5014976;28;20069;-27
2022/06/25 07:52:25;;;;;;;5.50;3.42;;;22.80;99.90;;;;;;5052755;28;20484;-27
2022/06/25 07:54:51;;;;;;;4.53;3.30;;;22.90;99.90;;;;;;5034482;28;20055;-34
2022/06/25 07:57:17;;;;;;;4.30;3.22;;;23.10;99.90;;;;;;5018222;28;20037;-27
2022/06/25 07:59:43;;;;;;;5.75;3.30;;;23.10;99.90;;;;;;5052313;28;20037;-27
2022/06/25 08:02:09;;;;;;;3.97;2.80;;;23.20;99.90;;;;;;5034164;28;20063;-27
2022/06/25 08:04:35;;;;;;;4.13;3.30;;;23.40;99.90;;;;;;5052679;28;20040;-27
2022/06/25 08:07:00;;;;;;;4.95;3.17;;;23.50;99.90;;;;;;5034268;28;20099;-27
2022/06/25 08:09:26;;;;;;;3.50;3.20;;;23.70;99.90;;;;;;5034282;28;20058;-27
2022/06/25 08:11:52;;;;;;;5.15;3.25;;;24.00;99.90;;;;;;5051889;28;20400;-27
2022/06/25 08:14:18;;;;;;;4.13;2.92;;;24.20;99.90;;;;;;5052343;28;20439;-28
2022/06/25 08:16:44;;;;;;;3.58;2.55;;;24.40;99.90;;;;;;5034334;28;20388;-28
2022/06/25 08:19:09;;;;;;;4.55;2.30;;;24.20;99.90;;;;;;5034341;28;20130;-27
2022/06/25 08:21:35;;;;;;;4.35;2.22;;;24.00;99.90;;;;;;5026661;28;20477;-27
2022/06/25 08:24:01;;;;;;;3.67;2.83;;;24.00;99.90;;;;;;5052111;28;20044;-27
2022/06/25 08:26:27;;;;;;;3.80;2.42;;;24.10;99.90;;;;;;5017887;28;20052;-28
2022/06/25 08:28:53;;;;;;;4.80;2.50;;;24.20;99.90;;;;;;5051912;28;20040;-27
2022/06/25 08:31:18;;;;;;;2.78;2.40;;;24.30;99.90;;;;;;5017348;28;20048;-27
2022/06/25 08:33:44;;;;;;;3.70;2.50;;;24.30;99.90;;;;;;5033979;28;20131;-27
2022/06/25 08:36:10;;;;;;;2.72;2.38;;;24.50;99.90;;;;;;5051880;28;20041;-27
2022/06/25 08:38:36;;;;;;;3.15;2.53;;;24.70;99.90;;;;;;5051941;28;20484;-27
2022/06/25 08:41:02;;;;;;;3.00;2.20;;;24.70;99.90;;;;;;5017405;28;20506;-27
2022/06/25 08:43:29;;;;;;;5.53;2.47;;;25.00;99.90;;;;;;5050990;28;20035;-27
2022/06/25 08:45:55;;;;;;;2.92;2.38;;;25.10;99.90;;;;;;5051811;28;20155;-27
2022/06/25 08:48:31;;;;;;;4.55;2.70;;;24.90;99.90;;;;;;5050327;28;20040;-27
2022/06/25 08:50:58;;;;;;;5.32;2.53;;;25.00;99.90;;;;;;5033483;28;20048;-28
2022/06/25 08:53:30;;;;;;;5.60;2.78;;;25.10;99.90;;;;;;5049878;28;20036;-27
2022/06/25 08:55:56;;;;;;;3.80;2.72;;;25.20;99.90;;;;;;5039775;28;20052;-27
2022/06/25 08:58:22;;;;;;;4.65;2.50;;;25.30;99.90;;;;;;5051286;28;20033;-28
2022/06/25 09:00:48;;;;;;;3.78;2.60;;;25.20;99.90;;;;;;5032908;28;20459;-27
2022/06/25 09:03:14;;;;;;;4.90;2.75;;;25.10;99.90;;;;;;5051001;28;20552;-27
2022/06/25 09:05:42;;;;;;;3.65;3.03;;;25.20;99.90;;;;;;5033207;28;20117;-27
2022/06/25 09:08:11;;;;;;;4.97;2.67;;;24.90;99.90;;;;;;5051278;28;20472;-27
2022/06/25 09:10:39;;;;;;;3.90;2.83;;;24.70;99.90;;;;;;5022494;28;20093;-27
2022/06/25 09:13:07;;;;;;;3.38;2.75;;;24.60;99.90;;;;;;5047427;28;20036;-27
2022/06/25 09:15:41;;;;;;;5.28;2.60;;;24.50;99.90;;;;;;5033769;28;20048;-27
2022/06/25 09:18:15;;;;;;;3.25;2.95;;;24.50;99.90;;;;;;5032880;28;20451;-27
2022/06/25 09:21:16;;;;;;;6.10;3.17;;;24.40;99.90;;;;;;5032837;28;20049;-27
2022/06/25 09:24:00;;;;;;;2.85;2.65;;;24.30;99.90;;;;;;4970245;28;20043;-27
2022/06/25 09:26:26;;;;;;;3.97;3.00;;;24.40;99.90;;;;;;5032579;28;20536;-28
2022/06/25 09:28:52;;;;;;;3.30;2.85;;;24.30;99.90;;;;;;5023144;28;20076;-27
2022/06/25 09:31:35;;;;;;;4.32;3.03;;;24.20;99.90;;;;;;5050883;28;20079;-28
2022/06/25 09:34:05;;;;;;;5.10;3.10;;;24.00;99.90;;;;;;5032717;28;20037;-27
2022/06/25 09:36:31;;;;;;;3.47;3.17;;;23.90;99.90;;;;;;5051033;28;20036;-27
2022/06/25 09:38:57;;;;;;;3.63;2.80;;;23.90;99.90;;;;;;5042215;28;20044;-27
2022/06/25 09:41:24;;;;;;;6.40;2.90;;;24.00;99.90;;;;;;5034222;28;20091;-27
2022/06/25 09:43:51;;;;;;;4.43;3.20;;;24.00;99.90;;;;;;5013723;28;20095;-28
2022/06/25 09:46:18;;;;;;;3.30;2.92;;;24.20;99.90;;;;;;5029345;28;20063;-27
2022/06/25 09:48:44;;;;;;;4.57;2.70;;;24.50;99.90;;;;;;5050754;28;20033;-27
2022/06/25 09:51:19;;;;;;;6.97;2.90;;;24.90;99.90;;;;;;4999904;28;20033;-27
2022/06/25 09:53:52;;;;;;;2.90;2.50;;;25.10;99.90;;;;;;5014675;28;20037;-28
2022/06/25 09:56:19;;;;;;;;;;;25.30;99.90;;;;;;4995549;28;20041;-28
2022/06/25 09:58:47;;;;;;;6.45;2.85;;;25.60;99.90;;;;;;5033128;28;19943;-28
2022/06/25 10:01:16;;;;;;;3.42;2.08;;;25.90;99.90;;;;;;5032610;28;20047;-28
2022/06/25 10:03:43;;;;;;;3.38;2.03;;;26.10;98.30;;;;;;5032556;28;20041;-28
2022/06/25 10:06:10;;;;;;;4.65;1.80;;;26.20;99.90;;;;;;5033432;28;20090;-28
2022/06/25 10:08:36;;;;;;;4.03;2.03;;;26.60;98.10;;;;;;5015031;28;20110;-29
2022/06/25 10:11:04;;;;;;;2.00;1.80;;;27.00;98.80;;;;;;5039067;28;20042;-27
2022/06/25 10:13:31;;;;;;;6.43;2.10;;;27.20;95.60;;;;;;5021167;28;20049;-27
2022/06/25 10:15:57;;;;;;;3.50;2.10;;;27.40;95.30;;;;;;5002861;28;20062;-27
2022/06/25 10:18:25;;;;;;;1.45;1.35;;;27.50;92.30;;;;;;5022707;28;20080;-28
2022/06/25 10:20:51;;;;;;;3.30;1.90;;;27.60;91.20;;;;;;4979510;28;20253;-27
2022/06/25 10:23:20;;;;;;;2.58;1.50;;;27.60;90.50;;;;;;5015959;28;20493;-27
2022/06/25 10:25:46;;;;;;;4.63;1.83;;;27.80;83.60;;;;;;5048744;28;20033;-27
2022/06/25 10:28:23;;;;;;;1.92;1.40;;;28.10;85.30;;;;;;5018677;28;20094;-28
2022/06/25 10:30:51;;;;;;;3.00;1.75;;;28.20;83.40;;;;;;5047858;28;20041;-28
2022/06/25 10:33:22;;;;;;;3.03;1.60;;;28.30;86.70;;;;;;5032088;28;20033;-28
2022/06/25 10:35:58;;;;;;;2.78;1.88;;;28.70;83.00;;;;;;5053402;28;20463;-28
2022/06/25 10:38:26;;;;;;;3.55;2.28;;;28.70;75.50;;;;;;5048455;28;20448;-28
2022/06/25 10:43:50;;;;;;;3.72;1.80;;;29.50;72.40;;;;;;5037663;28;20040;-28
2022/06/25 10:46:26;;;;;;;4.38;2.25;;;29.50;67.80;;;;;;5054321;28;20405;-28
2022/06/25 10:49:06;;;;;;;2.42;1.70;;;28.80;62.80;;;;;;5023742;28;20056;-28
2022/06/25 10:51:38;;;;;;;3.90;1.50;;;28.40;62.00;;;;;;5026111;28;20045;-27
2022/06/25 10:54:06;;;;;;;4.40;1.88;;;28.60;69.30;;;;;;5034349;28;20045;-28
2022/06/25 10:56:49;;;;;;;2.65;1.70;;;28.90;70.70;;;;;;5043353;28;20045;-28
2022/06/25 10:59:34;;;;;;;2.92;1.50;;;29.00;60.50;;;;;;5050329;28;20116;-28
2022/06/25 11:02:08;;;;;;;2.40;1.60;;;29.30;57.60;;;;;;5017196;28;20481;-28
2022/06/25 11:04:35;;;;;;;3.58;1.98;;;29.30;61.50;;;;;;5036657;28;20037;-28
2022/06/25 11:07:17;;;;;;;3.05;1.60;;;29.60;62.10;;;;;;5040035;28;20033;-28
2022/06/25 11:10:02;;;;;;;3.77;1.77;;;29.50;59.60;;;;;;5046108;28;20046;-28
2022/06/25 11:12:34;;;;;;;2.72;1.77;;;29.10;61.20;;;;;;5053577;28;20052;-28
2022/06/25 11:15:07;;;;;;;2.65;1.73;;;28.70;60.00;;;;;;5034211;28;20411;-28
2022/06/25 11:17:34;;;;;;;2.47;1.63;;;28.50;63.00;;;;;;5028087;28;20079;-28
2022/06/25 11:20:05;;;;;;;2.53;1.40;;;28.50;65.30;;;;;;5002891;28;20381;-28
2022/06/25 11:22:31;;;;;;;3.10;1.60;;;28.40;62.60;;;;;;5049765;28;20407;-28
2022/06/25 11:30:27;;;;;;;4.50;1.63;;;29.20;66.80;;;;;;5051669;28;20041;-28
2022/06/25 11:32:53;;;;;;;2.58;1.50;;;29.60;60.90;;;;;;5040869;28;20049;-28
2022/06/25 11:35:19;;;;;;;2.72;1.58;;;29.90;58.80;;;;;;5052035;28;20496;-29
2022/06/25 11:37:45;;;;;;;3.83;1.92;;;30.40;57.50;;;;;;5050668;28;20083;-29
2022/06/25 11:40:15;;;;;;;3.08;1.67;;;30.70;58.00;;;;;;5047430;28;20074;-28
2022/06/25 11:42:42;;;;;;;3.15;1.77;;;30.90;57.40;;;;;;5050845;28;20128;-29
2022/06/25 11:45:09;;;;;;;2.10;1.27;;;31.00;55.30;;;;;;5050019;28;20107;-28
2022/06/25 11:47:36;;;;;;;2.05;1.30;;;31.10;53.60;;;;;;5051531;28;20099;-28
2022/06/25 11:50:10;;;;;;;2.58;1.40;;;30.80;52.40;;;;;;5034083;28;20424;-29
2022/06/25 11:52:42;;;;;;;3.35;1.30;;;30.60;52.90;;;;;;5050583;28;20037;-29
2022/06/25 11:55:09;;;;;;;;;;;30.00;51.60;;;;;;5050663;28;20512;-29
2022/06/25 11:57:41;;;;;;;2.50;1.33;;;29.40;53.30;;;;;;5037842;28;20326;-29
2022/06/25 12:00:10;;;;;;;2.13;1.20;;;29.50;52.20;;;;;;5032166;28;20049;-28
2022/06/25 12:02:36;;;;;;;2.50;1.38;;;29.50;54.30;;;;;;5050803;28;20545;-28
2022/06/25 12:05:03;;;;;;;2.90;1.23;;;29.60;54.70;;;;;;5047912;28;20041;-28
2022/06/25 12:07:32;;;;;;;3.25;1.40;;;29.40;55.00;;;;;;5020850;28;20032;-28
2022/06/25 12:10:02;;;;;;;3.88;1.45;;;28.90;54.70;;;;;;5001678;28;20045;-27
2022/06/25 12:12:28;;;;;;;1.88;1.23;;;28.40;55.70;;;;;;5047462;28;20037;-28
2022/06/25 12:14:55;;;;;;;4.88;1.42;;;27.90;57.50;;;;;;5032405;28;20227;-28
2022/06/25 12:17:22;;;;;;;3.80;1.50;;;27.50;60.60;;;;;;5028575;28;20416;-28
2022/06/25 12:19:51;;;;;;;3.40;1.38;;;27.20;63.70;;;;;;5033304;28;20041;-28
2022/06/25 12:22:21;;;;;;;2.35;1.38;;;26.90;65.70;;;;;;5056961;28;20033;-28
2022/06/25 12:24:48;;;;;;;2.08;1.30;;;26.70;71.60;;;;;;5034511;28;20037;-28
2022/06/25 12:27:14;;;;;;;2.17;1.33;;;26.60;76.80;;;;;;5051923;28;20045;-28
2022/06/25 12:29:39;;;;;;;1.45;1.30;;;26.50;76.20;;;;;;5043712;28;20045;-28
2022/06/25 12:32:05;;;;;;;2.35;1.40;;;26.20;76.90;;;;;;5052008;28;20052;-28
2022/06/25 12:34:31;;;;;;;1.98;1.10;;;26.20;81.70;;;;;;5052038;28;20040;-28
2022/06/25 12:36:59;;;;;;;1.38;1.27;;;26.20;81.40;;;;;;5023618;28;20052;-30
2022/06/25 12:39:34;;;;;;;2.90;1.50;;;26.20;83.10;;;;;;5038661;28;20523;-28
2022/06/25 12:42:12;;;;;;;3.85;1.48;;;26.20;85.30;;;;;;5054039;28;20092;-28
2022/06/25 12:44:41;;;;;;;1.83;1.42;;;26.10;88.70;;;;;;5030780;28;20489;-28
2022/06/25 12:47:14;;;;;;;2.75;1.73;;;26.00;89.40;;;;;;5050786;28;20456;-28
2022/06/25 12:49:55;;;;;;;2.33;1.55;;;25.90;90.10;;;;;;5021424;28;20076;-29
2022/06/25 12:52:38;;;;;;;4.13;1.40;;;25.80;91.90;;;;;;5056799;28;20048;-28
2022/06/25 12:55:05;;;;;;;2.70;1.45;;;25.70;92.10;;;;;;5033874;28;20063;-28
2022/06/25 12:57:33;;;;;;;1.92;1.40;;;25.60;92.20;;;;;;5047640;28;20044;-28
2022/06/25 13:00:01;;;;;;;2.30;1.20;;;25.50;91.80;;;;;;5059720;28;20047;-29